createdAt,value
2023-03-15T00:00:34.896Z,4.45
2023-03-15T00:03:36.322Z,6.97
2023-03-15T00:06:37.830Z,7.03
2023-03-15T00:09:39.319Z,4.97
2023-03-15T00:12:41.099Z,11.43
2023-03-15T00:15:47.957Z,4.38
2023-03-15T00:18:49.601Z,6.30
2023-03-15T00:21:51.015Z,6.57
2023-03-15T00:24:52.420Z,4.03
2023-03-15T00:27:53.863Z,5.55
2023-03-15T00:31:06.340Z,4.57
2023-03-15T00:34:07.806Z,7.63
2023-03-15T00:37:09.206Z,5.43
2023-03-15T00:40:11.211Z,4.13
2023-03-15T00:43:12.586Z,6.03
2023-03-15T00:46:15.123Z,2.08
2023-03-15T00:49:16.885Z,5.50
2023-03-15T00:52:18.566Z,2.35
2023-03-15T00:55:20.442Z,4.50
2023-03-15T00:58:24.551Z,5.65
2023-03-15T01:01:29.671Z,4.88
2023-03-15T01:04:31.912Z,6.90
2023-03-15T01:07:33.826Z,2.28
2023-03-15T01:10:35.625Z,3.92
2023-03-15T01:13:37.783Z,3.30
2023-03-15T01:16:39.404Z,4.28
2023-03-15T01:19:40.818Z,4.15
2023-03-15T01:22:42.436Z,3.85
2023-03-15T01:25:43.867Z,2.60
2023-03-15T01:28:46.816Z,4.95
2023-03-15T01:31:48.239Z,4.80
2023-03-15T01:34:49.932Z,3.33
2023-03-15T01:37:52.272Z,1.75
2023-03-15T01:40:54.051Z,5.32
2023-03-15T01:43:55.604Z,1.92
2023-03-15T01:46:57.049Z,2.28
2023-03-15T01:50:06.289Z,4.45
2023-03-15T01:53:08.053Z,4.25
2023-03-15T01:56:11.214Z,6.53
2023-03-15T01:59:19.816Z,3.05
2023-03-15T02:02:23.214Z,2.35
2023-03-15T02:05:29.987Z,4.97
2023-03-15T02:08:35.452Z,5.57
2023-03-15T02:11:37.032Z,5.40
2023-03-15T02:14:40.671Z,4.30
2023-03-15T02:17:46.200Z,3.75
2023-03-15T02:21:21.690Z,6.10
2023-03-15T02:24:31.990Z,3.75
2023-03-15T02:27:35.484Z,3.80
2023-03-15T02:30:37.031Z,2.75
2023-03-15T02:33:46.171Z,4.32
2023-03-15T02:36:48.998Z,5.15
2023-03-15T02:39:50.439Z,4.35
2023-03-15T02:42:56.025Z,5.32
2023-03-15T02:46:00.427Z,3.03
2023-03-15T02:49:02.814Z,6.93
2023-03-15T02:52:06.622Z,3.90
2023-03-15T02:55:08.433Z,6.13
2023-03-15T02:58:09.960Z,5.10
2023-03-15T03:01:12.754Z,4.07
2023-03-15T03:04:14.163Z,2.72
2023-03-15T03:07:16.321Z,4.47
2023-03-15T03:10:29.245Z,4.40
2023-03-15T03:13:33.066Z,3.80
2023-03-15T03:16:37.389Z,4.75
2023-03-15T03:19:38.791Z,3.55
2023-03-15T03:22:41.794Z,3.30
2023-03-15T03:25:43.242Z,4.35
2023-03-15T03:28:46.445Z,5.40
2023-03-15T03:31:48.347Z,5.07
2023-03-15T03:34:49.980Z,3.38
2023-03-15T03:37:55.145Z,4.65
2023-03-15T03:41:02.523Z,4.93
2023-03-15T03:44:06.995Z,3.90
2023-03-15T03:47:09.284Z,4.72
2023-03-15T03:50:11.809Z,3.95
2023-03-15T03:53:13.631Z,4.18
2023-03-15T03:56:15.183Z,5.72
2023-03-15T03:59:16.883Z,6.53
2023-03-15T04:02:28.502Z,5.68
2023-03-15T04:05:34.595Z,5.75
2023-03-15T04:08:36.206Z,5.05
2023-03-15T04:11:41.159Z,8.60
2023-03-15T04:14:43.626Z,9.35
2023-03-15T04:17:46.806Z,7.85
2023-03-15T04:20:48.640Z,5.38
2023-03-15T04:23:52.889Z,10.68
2023-03-15T04:27:07.183Z,5.00
2023-03-15T04:30:29.284Z,6.30
2023-03-15T04:33:49.080Z,8.60
2023-03-15T04:37:22.470Z,7.07
2023-03-15T04:40:50.242Z,7.88
2023-03-15T04:44:17.891Z,7.63
2023-03-15T04:47:29.565Z,8.00
2023-03-15T04:50:49.445Z,32.78
2023-03-15T04:53:56.856Z,18.63
2023-03-15T04:57:30.427Z,9.20
2023-03-15T05:00:52.490Z,7.57
2023-03-15T05:04:20.081Z,10.80
2023-03-15T05:07:36.424Z,9.93
2023-03-15T05:11:04.772Z,10.10
2023-03-15T05:14:20.283Z,9.82
2023-03-15T05:17:36.561Z,12.23
2023-03-15T05:20:56.541Z,13.23
2023-03-15T05:24:16.006Z,11.10
2023-03-15T05:27:36.665Z,10.85
2023-03-15T05:31:07.471Z,12.15
2023-03-15T05:34:41.120Z,22.45
2023-03-15T05:38:13.302Z,11.85
2023-03-15T05:41:28.939Z,13.88
2023-03-15T05:44:57.065Z,13.55
2023-03-15T05:48:27.438Z,11.40
2023-03-15T05:51:39.370Z,14.55
2023-03-15T05:54:59.278Z,11.00
2023-03-15T05:58:09.578Z,34.55
2023-03-15T06:01:37.044Z,25.40
2023-03-15T06:04:49.686Z,26.93
2023-03-15T06:07:56.515Z,13.50
2023-03-15T06:10:58.335Z,17.42
2023-03-15T06:13:59.992Z,25.23
2023-03-15T06:17:19.229Z,34.15
2023-03-15T06:20:20.799Z,32.55
2023-03-15T06:23:22.690Z,12.55
2023-03-15T06:26:24.204Z,14.23
2023-03-15T06:29:30.324Z,13.85
2023-03-15T06:32:33.173Z,10.13
2023-03-15T06:35:34.789Z,9.20
2023-03-15T06:38:36.493Z,5.65
2023-03-15T06:41:39.346Z,7.07
2023-03-15T06:44:47.335Z,5.03
2023-03-15T06:47:49.292Z,4.00
2023-03-15T06:50:52.048Z,8.63
2023-03-15T06:53:53.450Z,9.27
2023-03-15T06:56:56.297Z,7.77
2023-03-15T06:59:57.689Z,6.30
2023-03-15T07:02:59.198Z,6.60
2023-03-15T07:06:00.648Z,7.28
2023-03-15T07:09:03.133Z,6.20
2023-03-15T07:12:05.093Z,2.27
2023-03-15T07:15:07.162Z,6.43
2023-03-15T07:18:08.658Z,5.90
2023-03-15T07:21:10.253Z,3.40
2023-03-15T07:24:11.664Z,6.70
2023-03-15T07:27:15.675Z,7.43
2023-03-15T07:30:19.229Z,4.20
2023-03-15T07:33:20.846Z,3.85
2023-03-15T07:36:22.342Z,7.70
2023-03-15T07:39:23.974Z,5.20
2023-03-15T07:42:25.371Z,5.40
2023-03-15T07:45:30.466Z,5.45
2023-03-15T07:48:31.886Z,3.05
2023-03-15T07:51:33.316Z,2.72
2023-03-15T07:54:34.775Z,4.93
2023-03-15T07:57:36.183Z,4.47
2023-03-15T08:00:37.613Z,4.60
2023-03-15T08:03:38.987Z,4.28
2023-03-15T08:06:40.396Z,4.15
2023-03-15T08:09:41.796Z,2.58
2023-03-15T08:12:43.289Z,4.28
2023-03-15T08:15:47.597Z,4.82
2023-03-15T08:18:49.030Z,7.00
2023-03-15T08:21:50.475Z,4.25
2023-03-15T08:24:51.857Z,4.72
2023-03-15T08:27:53.490Z,2.85
2023-03-15T08:30:54.856Z,4.78
2023-03-15T08:33:56.396Z,6.20
2023-03-15T08:36:57.804Z,6.53
2023-03-15T08:39:59.413Z,8.90
2023-03-15T08:43:00.907Z,6.13
2023-03-15T08:46:02.457Z,2.45
2023-03-15T08:49:04.221Z,1.45
2023-03-15T08:52:05.773Z,3.67
2023-03-15T08:55:07.990Z,3.28
2023-03-15T08:58:09.415Z,3.25
2023-03-15T09:01:12.013Z,2.50
2023-03-15T09:04:13.455Z,2.70
2023-03-15T09:07:15.347Z,2.67
2023-03-15T09:10:17.261Z,5.82
2023-03-15T09:13:18.690Z,5.63
2023-03-15T09:16:20.218Z,5.07
2023-03-15T09:19:21.796Z,2.25
2023-03-15T09:22:38.436Z,3.35
2023-03-15T09:25:41.312Z,5.47
2023-03-15T09:28:42.794Z,5.15
2023-03-15T09:31:44.188Z,6.03
2023-03-15T09:34:45.676Z,5.43
2023-03-15T09:37:48.921Z,6.32
2023-03-15T09:40:50.738Z,4.15
2023-03-15T09:44:12.129Z,7.63
2023-03-15T09:47:45.467Z,6.55
2023-03-15T09:51:28.363Z,3.33
2023-03-15T09:54:42.744Z,6.97
2023-03-15T09:57:53.441Z,3.17
2023-03-15T10:00:58.083Z,5.18
2023-03-15T10:04:14.324Z,3.17
2023-03-15T10:07:16.316Z,3.88
2023-03-15T10:10:38.163Z,5.80
2023-03-15T10:14:08.013Z,1.40
2023-03-15T10:17:12.618Z,2.42
2023-03-15T10:20:20.360Z,2.88
2023-03-15T10:23:38.778Z,1.90
2023-03-15T10:26:40.525Z,1.88
2023-03-15T10:29:43.226Z,0.98
2023-03-15T10:32:47.712Z,0.97
2023-03-15T10:35:51.008Z,0.60
2023-03-15T10:38:53.770Z,1.60
2023-03-15T10:41:55.153Z,2.00
2023-03-15T10:44:57.724Z,2.25
2023-03-15T10:48:00.553Z,0.90
2023-03-15T10:51:05.871Z,1.60
2023-03-15T10:54:21.976Z,1.88
2023-03-15T10:57:27.071Z,3.92
2023-03-15T11:00:37.402Z,3.33
2023-03-15T11:03:41.020Z,5.60
2023-03-15T11:06:59.107Z,4.28
2023-03-15T11:10:03.299Z,4.22
2023-03-15T11:13:11.776Z,3.40
2023-03-15T11:16:13.477Z,6.45
2023-03-15T11:19:21.936Z,3.90
2023-03-15T11:22:24.184Z,3.17
2023-03-15T11:25:31.177Z,3.55
2023-03-15T11:28:36.003Z,3.08
2023-03-15T11:31:37.772Z,3.42
2023-03-15T11:34:53.819Z,4.30
2023-03-15T11:38:15.678Z,2.30
2023-03-15T11:41:32.358Z,7.70
2023-03-15T11:44:39.959Z,2.45
2023-03-15T11:47:54.682Z,3.17
2023-03-15T11:50:58.409Z,2.25
2023-03-15T11:54:05.656Z,4.10
2023-03-15T11:57:29.693Z,2.65
2023-03-15T12:00:31.067Z,1.73
2023-03-15T12:03:44.790Z,2.45
2023-03-15T12:06:46.215Z,2.15
2023-03-15T12:10:02.770Z,0.82
2023-03-15T12:13:18.382Z,2.55
2023-03-15T12:16:22.169Z,2.22
2023-03-15T12:19:26.770Z,2.70
2023-03-15T12:22:33.645Z,4.85
2023-03-15T12:25:48.890Z,6.50
2023-03-15T12:28:58.426Z,3.80
2023-03-15T12:32:02.762Z,1.80
2023-03-15T12:35:15.765Z,2.88
2023-03-15T12:38:23.214Z,4.72
2023-03-15T12:41:40.679Z,4.20
2023-03-15T12:44:43.145Z,5.93
2023-03-15T12:47:44.520Z,4.80
2023-03-15T12:50:46.008Z,5.10
2023-03-15T12:53:49.334Z,3.83
2023-03-15T12:56:57.229Z,4.03
2023-03-15T13:00:02.973Z,5.28
2023-03-15T13:03:15.861Z,7.45
2023-03-15T13:06:40.067Z,5.70
2023-03-15T13:09:58.279Z,4.05
2023-03-15T13:13:21.348Z,4.63
2023-03-15T13:16:49.157Z,8.23
2023-03-15T13:20:18.471Z,4.65
2023-03-15T13:23:28.907Z,5.20
2023-03-15T13:26:36.365Z,3.30
2023-03-15T13:29:37.872Z,6.10
2023-03-15T13:32:43.174Z,4.10
2023-03-15T13:36:00.934Z,6.00
2023-03-15T13:39:12.030Z,5.93
2023-03-15T13:42:23.191Z,4.68
2023-03-15T13:45:24.558Z,8.15
2023-03-15T13:48:27.886Z,6.13
2023-03-15T13:54:38.952Z,2.13
2023-03-15T13:57:40.558Z,2.10
2023-03-15T14:00:42.107Z,3.65
2023-03-15T14:03:48.904Z,3.92
2023-03-15T14:06:50.765Z,6.88
2023-03-15T14:10:27.688Z,4.75
2023-03-15T14:13:35.569Z,6.15
2023-03-15T14:17:03.134Z,6.13
2023-03-15T14:20:08.863Z,4.85
2023-03-15T14:23:16.859Z,2.65
2023-03-15T14:26:28.953Z,3.13
2023-03-15T14:29:34.232Z,6.03
2023-03-15T14:32:38.522Z,4.80
2023-03-15T14:35:44.183Z,7.60
2023-03-15T14:38:51.938Z,9.13
2023-03-15T14:41:53.341Z,8.82
2023-03-15T14:44:54.693Z,6.38
2023-03-15T14:48:06.884Z,6.13
2023-03-15T14:51:17.319Z,6.70
2023-03-15T14:54:19.127Z,13.27
2023-03-15T14:57:20.562Z,8.98
2023-03-15T15:00:22.340Z,9.95
2023-03-15T15:03:38.167Z,4.60
2023-03-15T15:06:39.625Z,6.78
2023-03-15T15:09:48.474Z,3.58
2023-03-15T15:12:56.131Z,11.45
2023-03-15T15:16:05.570Z,5.05
2023-03-15T15:19:07.208Z,12.32
2023-03-15T15:22:10.794Z,6.82
2023-03-15T15:25:18.310Z,10.82
2023-03-15T15:28:33.111Z,6.72
2023-03-15T15:31:38.606Z,15.23
2023-03-15T15:34:40.061Z,5.97
2023-03-15T15:37:43.498Z,8.82
2023-03-15T15:43:46.253Z,7.20
2023-03-15T15:46:47.698Z,29.90
2023-03-15T15:49:49.077Z,12.88
2023-03-15T15:52:52.308Z,14.20
2023-03-15T15:55:53.745Z,10.55
2023-03-15T15:58:55.233Z,7.30
2023-03-15T16:02:01.057Z,9.23
2023-03-15T16:05:02.974Z,10.23
2023-03-15T16:08:04.859Z,8.10
2023-03-15T16:11:07.556Z,9.95
2023-03-15T16:14:11.896Z,16.08
2023-03-15T16:17:19.154Z,7.40
2023-03-15T16:20:20.728Z,5.65
2023-03-15T16:23:24.381Z,7.30
2023-03-15T16:26:25.853Z,6.97
2023-03-15T16:29:37.040Z,4.28
2023-03-15T16:32:44.557Z,3.58
2023-03-15T16:35:47.424Z,10.50
2023-03-15T16:38:49.350Z,5.37
2023-03-15T16:41:50.738Z,6.90
2023-03-15T16:44:52.842Z,6.10
2023-03-15T16:47:54.444Z,7.53
2023-03-15T16:50:55.858Z,14.38
2023-03-15T16:54:05.235Z,6.95
2023-03-15T16:57:20.219Z,25.80
2023-03-15T17:00:22.232Z,7.95
2023-03-15T17:03:23.723Z,10.60
2023-03-15T17:06:25.266Z,11.07
2023-03-15T17:09:26.671Z,8.50
2023-03-15T17:12:29.219Z,5.13
2023-03-15T17:15:30.861Z,6.83
2023-03-15T17:18:32.266Z,7.93
2023-03-15T17:21:35.377Z,6.18
2023-03-15T17:24:36.843Z,4.65
2023-03-15T17:27:40.989Z,6.10
2023-03-15T17:30:42.494Z,5.78
2023-03-15T17:33:44.039Z,13.43
2023-03-15T17:36:45.468Z,8.95
2023-03-15T17:39:46.875Z,9.35
2023-03-15T17:42:49.296Z,9.35
2023-03-15T17:45:50.722Z,6.67
2023-03-15T17:48:52.101Z,13.18
2023-03-15T17:51:53.505Z,7.35
2023-03-15T17:54:54.924Z,19.95
2023-03-15T17:57:56.384Z,29.30
2023-03-15T18:00:57.860Z,28.20
2023-03-15T18:03:59.304Z,31.23
2023-03-15T18:07:00.726Z,30.20
2023-03-15T18:10:02.173Z,16.33
2023-03-15T18:13:04.329Z,10.38
2023-03-15T18:16:06.173Z,7.32
2023-03-15T18:19:07.659Z,13.68
2023-03-15T18:22:15.781Z,9.68
2023-03-15T18:25:24.001Z,5.55
2023-03-15T18:28:25.442Z,11.63
2023-03-15T18:31:26.954Z,9.30
2023-03-15T18:34:28.446Z,8.10
2023-03-15T18:37:29.883Z,9.93
2023-03-15T18:40:32.448Z,15.77
2023-03-15T18:43:33.825Z,12.43
2023-03-15T18:46:35.339Z,8.27
2023-03-15T18:49:36.726Z,10.82
2023-03-15T18:52:38.254Z,9.50
2023-03-15T18:55:39.695Z,10.40
2023-03-15T18:58:41.085Z,9.73
2023-03-15T19:01:43.070Z,9.90
2023-03-15T19:04:44.523Z,9.55
2023-03-15T19:07:47.783Z,18.63
2023-03-15T19:13:50.754Z,9.73
2023-03-15T19:16:52.225Z,9.27
2023-03-15T19:19:53.675Z,12.93
2023-03-15T19:22:55.039Z,9.80
2023-03-15T19:25:56.453Z,9.00
2023-03-15T19:28:57.824Z,13.93
2023-03-15T19:31:59.280Z,16.17
2023-03-15T19:35:00.712Z,26.27
2023-03-15T19:38:02.240Z,29.85
2023-03-15T19:41:05.533Z,20.80
2023-03-15T19:44:07.478Z,14.35
2023-03-15T19:47:09.910Z,13.90
2023-03-15T19:50:13.330Z,10.35
2023-03-15T19:53:14.848Z,10.68
2023-03-15T19:56:16.234Z,11.35
2023-03-15T19:59:17.664Z,9.93
2023-03-15T20:02:19.333Z,9.38
2023-03-15T20:05:21.181Z,10.90
2023-03-15T20:08:24.760Z,9.70
2023-03-15T20:11:26.706Z,16.40
2023-03-15T20:14:28.098Z,10.38
2023-03-15T20:17:29.525Z,6.88
2023-03-15T20:20:30.918Z,14.18
2023-03-15T20:23:32.316Z,10.95
2023-03-15T20:26:33.843Z,10.27
2023-03-15T20:29:35.261Z,9.65
2023-03-15T20:32:36.695Z,15.38
2023-03-15T20:35:38.164Z,9.07
2023-03-15T20:38:39.550Z,14.68
2023-03-15T20:41:41.306Z,10.88
2023-03-15T20:44:42.696Z,10.43
2023-03-15T20:47:44.089Z,25.83
2023-03-15T20:50:46.786Z,11.63
2023-03-15T20:53:48.163Z,10.73
2023-03-15T20:56:49.580Z,10.75
2023-03-15T20:59:50.955Z,12.75
2023-03-15T21:02:52.883Z,11.98
2023-03-15T21:05:54.268Z,10.43
2023-03-15T21:08:55.636Z,12.35
2023-03-15T21:11:57.347Z,9.95
2023-03-15T21:14:58.751Z,13.77
2023-03-15T21:18:00.415Z,10.93
2023-03-15T21:21:04.575Z,16.67
2023-03-15T21:24:06.193Z,12.15
2023-03-15T21:27:07.618Z,9.30
2023-03-15T21:30:10.427Z,10.65
2023-03-15T21:33:11.840Z,10.77
2023-03-15T21:36:13.260Z,9.25
2023-03-15T21:39:14.655Z,10.18
2023-03-15T21:42:16.161Z,13.45
2023-03-15T21:45:17.681Z,11.38
2023-03-15T21:48:19.390Z,15.07
2023-03-15T21:51:20.774Z,8.95
2023-03-15T21:54:22.179Z,10.32
2023-03-15T21:57:23.644Z,10.75
2023-03-15T22:00:25.528Z,10.82
2023-03-15T22:03:28.257Z,10.70
2023-03-15T22:06:29.709Z,9.60
2023-03-15T22:09:31.121Z,18.40
2023-03-15T22:12:32.804Z,19.23
2023-03-15T22:15:34.248Z,14.88
2023-03-15T22:18:35.629Z,11.40
2023-03-15T22:21:37.044Z,10.35
2023-03-15T22:24:38.595Z,13.32
2023-03-15T22:27:40.857Z,13.02
2023-03-15T22:30:42.277Z,27.45
2023-03-15T22:33:43.982Z,21.88
2023-03-15T22:36:45.422Z,11.60
2023-03-15T22:39:46.808Z,11.68
2023-03-15T22:42:48.284Z,11.38
2023-03-15T22:45:49.660Z,13.10
2023-03-15T22:48:51.044Z,7.47
2023-03-15T22:51:52.432Z,12.15
2023-03-15T22:54:54.253Z,9.65
2023-03-15T22:57:55.659Z,11.07
2023-03-15T23:00:57.024Z,10.60
2023-03-15T23:03:58.400Z,13.52
2023-03-15T23:07:00.122Z,10.43
2023-03-15T23:10:01.703Z,10.85
2023-03-15T23:13:03.627Z,13.48
2023-03-15T23:16:05.311Z,13.27
2023-03-15T23:19:06.766Z,22.08
2023-03-15T23:22:08.188Z,16.52
2023-03-15T23:25:10.687Z,16.52
2023-03-15T23:28:12.137Z,7.90
2023-03-15T23:31:13.634Z,9.65
2023-03-15T23:34:15.510Z,9.40
2023-03-15T23:37:17.224Z,4.95
2023-03-15T23:40:19.743Z,4.25
2023-03-15T23:43:21.236Z,6.57
2023-03-15T23:46:22.687Z,7.00
2023-03-15T23:49:24.121Z,8.73
2023-03-15T23:52:25.930Z,6.75
2023-03-15T23:55:27.405Z,8.75
2023-03-15T23:58:28.782Z,13.07
